Airfield :
LOGIN :

Register | Disclaimer

   EN    FR    IT 

 










Legend :    VFR   Marginal VFR   IFR   Intensive IFR   Very Intensive IFR
Visi :
Ceiling :
>= 8 km
>= 3000ft
5 to 8 km
1000 to 3000 ft
1500m to 5 km
500 to 1000 ft
800 to 1500m
200 to 500 ft
< 800m
< 200 ft
Symbols :   Thunderstorms  Fog  Heavy snow  Heavy precipitations  Wind > 20 kt
SIGMETs :     Misc.  Thunderstorms  Icing  Turbulence  Mountain Waves  Volcanic Ashes







- Airport Elevation : 256 ft
- IATA code : CFR
- Download approach charts


LFRK - Caen

CURRENT METAR :
  • 160430Z AUTO 32009KT 9999 SCT021 SCT038 05/02 Q1015

EXPIRED METARs :
  • 160400Z AUTO 33008KT 300V360 9999 FEW021 BKN076 05/03 Q1014
  • 160330Z AUTO 33010KT 9999 FEW019 SCT054 BKN068 05/03 Q1014
  • 160300Z AUTO 33009KT 9999 FEW020 SCT060 05/03 Q1014
  • 160230Z AUTO 33008KT 300V360 9999 SCT020 BKN037 BKN050 05/03 Q1013

Expired Forecast.
Met : +33 2 31 26 68 11
No reported NOTAMs for that airfield.



MET'MAP, your aeronautical weather chart ! - Copyright ORBIFLY December 2007 - Disclaimer

ORBIFLY MET'MAP TEAM :

Programming & Development : Alexandra Zaïnal
Concept & Development : Baudouin d'Aumeries
Co-Development & Prog : Marc-Olivier Méhu
Technical & hardware support : Manuel Goepfert

Contact : metmap@orbifly.com




SOURCES & CREDITS :

   NOAA